sensor_id;sensor_type;location;lat;lon;timestamp;P1;durP1;ratioP1;P2;durP2;ratioP2
34767;SDS011;21755;43.608;1.236;2022-11-20T00:01:18;2.88;;;1.52;;
34767;SDS011;21755;43.608;1.236;2022-11-20T00:03:50;9.55;;;1.45;;
34767;SDS011;21755;43.608;1.236;2022-11-20T00:06:18;2.75;;;1.48;;
34767;SDS011;21755;43.608;1.236;2022-11-20T00:08:45;1.85;;;1.25;;
34767;SDS011;21755;43.608;1.236;2022-11-20T00:11:12;1.45;;;1.27;;
34767;SDS011;21755;43.608;1.236;2022-11-20T00:13:40;2.92;;;1.17;;
34767;SDS011;21755;43.608;1.236;2022-11-20T00:16:07;1.73;;;1.10;;
34767;SDS011;21755;43.608;1.236;2022-11-20T00:18:38;4.05;;;1.60;;
34767;SDS011;21755;43.608;1.236;2022-11-20T00:21:09;12.13;;;2.10;;
34767;SDS011;21755;43.608;1.236;2022-11-20T00:23:37;2.28;;;1.42;;
34767;SDS011;21755;43.608;1.236;2022-11-20T00:26:06;3.72;;;1.80;;
34767;SDS011;21755;43.608;1.236;2022-11-20T00:28:34;4.35;;;1.75;;
34767;SDS011;21755;43.608;1.236;2022-11-20T00:31:01;2.85;;;1.50;;
34767;SDS011;21755;43.608;1.236;2022-11-20T00:33:28;7.20;;;2.42;;
34767;SDS011;21755;43.608;1.236;2022-11-20T00:35:58;2.55;;;1.48;;
34767;SDS011;21755;43.608;1.236;2022-11-20T00:38:45;6.68;;;1.60;;
34767;SDS011;21755;43.608;1.236;2022-11-20T00:41:12;2.60;;;1.77;;
34767;SDS011;21755;43.608;1.236;2022-11-20T00:43:40;5.03;;;2.10;;
34767;SDS011;21755;43.608;1.236;2022-11-20T00:46:12;2.47;;;1.67;;
34767;SDS011;21755;43.608;1.236;2022-11-20T00:48:40;3.33;;;1.65;;
34767;SDS011;21755;43.608;1.236;2022-11-20T00:51:06;2.67;;;1.50;;
34767;SDS011;21755;43.608;1.236;2022-11-20T00:53:32;3.95;;;1.45;;
34767;SDS011;21755;43.608;1.236;2022-11-20T00:55:59;8.73;;;2.10;;
34767;SDS011;21755;43.608;1.236;2022-11-20T00:58:36;4.43;;;1.38;;
34767;SDS011;21755;43.608;1.236;2022-11-20T01:01:04;2.80;;;1.67;;
34767;SDS011;21755;43.608;1.236;2022-11-20T01:03:39;5.50;;;2.00;;
34767;SDS011;21755;43.608;1.236;2022-11-20T01:06:10;7.97;;;3.78;;
34767;SDS011;21755;43.608;1.236;2022-11-20T01:08:43;4.88;;;1.65;;
34767;SDS011;21755;43.608;1.236;2022-11-20T01:11:11;8.40;;;4.57;;
34767;SDS011;21755;43.608;1.236;2022-11-20T01:13:42;7.50;;;4.55;;
34767;SDS011;21755;43.608;1.236;2022-11-20T01:18:38;7.93;;;3.80;;
34767;SDS011;21755;43.608;1.236;2022-11-20T01:21:06;4.07;;;2.00;;
34767;SDS011;21755;43.608;1.236;2022-11-20T01:23:34;2.45;;;1.52;;
34767;SDS011;21755;43.608;1.236;2022-11-20T01:26:02;6.20;;;1.80;;
34767;SDS011;21755;43.608;1.236;2022-11-20T01:28:29;3.35;;;1.45;;
34767;SDS011;21755;43.608;1.236;2022-11-20T01:30:56;3.83;;;1.48;;
34767;SDS011;21755;43.608;1.236;2022-11-20T01:33:22;2.85;;;1.55;;
34767;SDS011;21755;43.608;1.236;2022-11-20T01:35:48;8.82;;;1.48;;
34767;SDS011;21755;43.608;1.236;2022-11-20T01:38:15;2.47;;;1.33;;
34767;SDS011;21755;43.608;1.236;2022-11-20T01:40:41;2.85;;;1.30;;
34767;SDS011;21755;43.608;1.236;2022-11-20T01:43:16;4.50;;;1.75;;
34767;SDS011;21755;43.608;1.236;2022-11-20T01:48:42;3.17;;;1.30;;
34767;SDS011;21755;43.608;1.236;2022-11-20T01:51:15;5.22;;;1.23;;
34767;SDS011;21755;43.608;1.236;2022-11-20T01:53:46;2.55;;;1.40;;
34767;SDS011;21755;43.608;1.236;2022-11-20T01:56:13;3.75;;;1.50;;
34767;SDS011;21755;43.608;1.236;2022-11-20T01:58:42;2.80;;;1.45;;
34767;SDS011;21755;43.608;1.236;2022-11-20T02:01:13;1.52;;;1.13;;
34767;SDS011;21755;43.608;1.236;2022-11-20T02:03:39;3.58;;;1.58;;
34767;SDS011;21755;43.608;1.236;2022-11-20T02:08:54;4.13;;;1.48;;
34767;SDS011;21755;43.608;1.236;2022-11-20T02:11:20;5.25;;;1.85;;
34767;SDS011;21755;43.608;1.236;2022-11-20T02:13:47;4.55;;;1.55;;
34767;SDS011;21755;43.608;1.236;2022-11-20T02:19:04;2.53;;;1.50;;
34767;SDS011;21755;43.608;1.236;2022-11-20T02:21:43;4.82;;;2.00;;
34767;SDS011;21755;43.608;1.236;2022-11-20T02:24:14;1.55;;;1.40;;
34767;SDS011;21755;43.608;1.236;2022-11-20T02:26:53;5.90;;;1.80;;
34767;SDS011;21755;43.608;1.236;2022-11-20T02:29:25;2.15;;;1.55;;
34767;SDS011;21755;43.608;1.236;2022-11-20T02:31:56;2.63;;;1.30;;
34767;SDS011;21755;43.608;1.236;2022-11-20T02:34:24;4.35;;;1.70;;
34767;SDS011;21755;43.608;1.236;2022-11-20T02:36:50;3.78;;;1.40;;
34767;SDS011;21755;43.608;1.236;2022-11-20T02:39:18;2.25;;;1.55;;
34767;SDS011;21755;43.608;1.236;2022-11-20T02:41:45;4.45;;;1.65;;
34767;SDS011;21755;43.608;1.236;2022-11-20T02:44:12;2.35;;;1.40;;
34767;SDS011;21755;43.608;1.236;2022-11-20T02:46:38;4.72;;;1.40;;
34767;SDS011;21755;43.608;1.236;2022-11-20T02:49:04;4.22;;;1.55;;
34767;SDS011;21755;43.608;1.236;2022-11-20T02:51:30;3.60;;;1.67;;
34767;SDS011;21755;43.608;1.236;2022-11-20T02:53:56;3.10;;;1.73;;
34767;SDS011;21755;43.608;1.236;2022-11-20T02:56:22;6.22;;;1.75;;
34767;SDS011;21755;43.608;1.236;2022-11-20T02:58:49;4.22;;;1.95;;
34767;SDS011;21755;43.608;1.236;2022-11-20T03:01:15;1.98;;;1.33;;
34767;SDS011;21755;43.608;1.236;2022-11-20T03:03:41;3.53;;;1.63;;
34767;SDS011;21755;43.608;1.236;2022-11-20T03:06:07;1.95;;;1.65;;
34767;SDS011;21755;43.608;1.236;2022-11-20T03:08:33;3.55;;;1.50;;
34767;SDS011;21755;43.608;1.236;2022-11-20T03:11:03;4.15;;;1.60;;
34767;SDS011;21755;43.608;1.236;2022-11-20T03:13:31;2.85;;;1.63;;
34767;SDS011;21755;43.608;1.236;2022-11-20T03:15:57;3.63;;;1.63;;
34767;SDS011;21755;43.608;1.236;2022-11-20T03:18:23;5.32;;;1.95;;
34767;SDS011;21755;43.608;1.236;2022-11-20T03:20:49;4.32;;;1.50;;
34767;SDS011;21755;43.608;1.236;2022-11-20T03:23:15;2.67;;;1.40;;
34767;SDS011;21755;43.608;1.236;2022-11-20T03:25:41;6.25;;;1.70;;
34767;SDS011;21755;43.608;1.236;2022-11-20T03:28:06;3.40;;;1.38;;
34767;SDS011;21755;43.608;1.236;2022-11-20T03:30:32;4.85;;;1.70;;
34767;SDS011;21755;43.608;1.236;2022-11-20T03:32:58;2.33;;;1.02;;
34767;SDS011;21755;43.608;1.236;2022-11-20T03:35:25;4.22;;;1.50;;
34767;SDS011;21755;43.608;1.236;2022-11-20T03:37:51;4.95;;;1.20;;
34767;SDS011;21755;43.608;1.236;2022-11-20T03:40:17;2.70;;;1.38;;
34767;SDS011;21755;43.608;1.236;2022-11-20T03:42:43;5.50;;;1.20;;
34767;SDS011;21755;43.608;1.236;2022-11-20T03:45:15;1.75;;;1.00;;
34767;SDS011;21755;43.608;1.236;2022-11-20T03:47:42;6.38;;;1.50;;
34767;SDS011;21755;43.608;1.236;2022-11-20T03:50:10;1.80;;;1.33;;
34767;SDS011;21755;43.608;1.236;2022-11-20T03:52:40;2.42;;;1.42;;
34767;SDS011;21755;43.608;1.236;2022-11-20T03:55:07;1.23;;;0.95;;
34767;SDS011;21755;43.608;1.236;2022-11-20T03:57:33;3.17;;;1.02;;
34767;SDS011;21755;43.608;1.236;2022-11-20T03:59:59;2.63;;;1.33;;
34767;SDS011;21755;43.608;1.236;2022-11-20T04:02:25;4.97;;;1.20;;
34767;SDS011;21755;43.608;1.236;2022-11-20T04:04:50;2.67;;;1.20;;
34767;SDS011;21755;43.608;1.236;2022-11-20T04:07:16;1.92;;;1.00;;
34767;SDS011;21755;43.608;1.236;2022-11-20T04:09:42;1.70;;;1.02;;
34767;SDS011;21755;43.608;1.236;2022-11-20T04:12:08;6.95;;;1.15;;
34767;SDS011;21755;43.608;1.236;2022-11-20T04:14:34;1.63;;;1.10;;
34767;SDS011;21755;43.608;1.236;2022-11-20T04:17:00;2.20;;;1.27;;
34767;SDS011;21755;43.608;1.236;2022-11-20T04:19:26;2.45;;;1.25;;
34767;SDS011;21755;43.608;1.236;2022-11-20T04:21:52;2.85;;;1.00;;
34767;SDS011;21755;43.608;1.236;2022-11-20T04:24:18;6.75;;;1.40;;
34767;SDS011;21755;43.608;1.236;2022-11-20T04:26:44;3.80;;;1.42;;
34767;SDS011;21755;43.608;1.236;2022-11-20T04:29:10;3.90;;;1.40;;
34767;SDS011;21755;43.608;1.236;2022-11-20T04:31:37;2.33;;;1.30;;
34767;SDS011;21755;43.608;1.236;2022-11-20T04:34:04;3.72;;;1.30;;
34767;SDS011;21755;43.608;1.236;2022-11-20T04:36:31;2.70;;;1.52;;
34767;SDS011;21755;43.608;1.236;2022-11-20T04:38:59;2.88;;;1.10;;
34767;SDS011;21755;43.608;1.236;2022-11-20T04:41:27;2.58;;;1.33;;
34767;SDS011;21755;43.608;1.236;2022-11-20T04:43:55;4.30;;;1.40;;
34767;SDS011;21755;43.608;1.236;2022-11-20T04:48:54;3.38;;;1.00;;
34767;SDS011;21755;43.608;1.236;2022-11-20T04:51:21;2.17;;;1.00;;
34767;SDS011;21755;43.608;1.236;2022-11-20T04:53:47;1.63;;;1.00;;
34767;SDS011;21755;43.608;1.236;2022-11-20T04:56:13;5.22;;;1.55;;
34767;SDS011;21755;43.608;1.236;2022-11-20T04:58:39;3.13;;;1.25;;
34767;SDS011;21755;43.608;1.236;2022-11-20T05:01:15;1.83;;;1.05;;
34767;SDS011;21755;43.608;1.236;2022-11-20T05:03:45;8.38;;;1.25;;
34767;SDS011;21755;43.608;1.236;2022-11-20T05:06:13;2.50;;;1.33;;
34767;SDS011;21755;43.608;1.236;2022-11-20T05:08:42;8.88;;;2.88;;
34767;SDS011;21755;43.608;1.236;2022-11-20T05:11:09;2.97;;;0.90;;
34767;SDS011;21755;43.608;1.236;2022-11-20T05:13:41;2.80;;;1.40;;
34767;SDS011;21755;43.608;1.236;2022-11-20T05:16:09;2.85;;;1.17;;
34767;SDS011;21755;43.608;1.236;2022-11-20T05:18:36;2.03;;;1.27;;
34767;SDS011;21755;43.608;1.236;2022-11-20T05:21:03;1.83;;;1.17;;
34767;SDS011;21755;43.608;1.236;2022-11-20T05:23:30;3.25;;;1.35;;
34767;SDS011;21755;43.608;1.236;2022-11-20T05:25:57;1.55;;;1.02;;
34767;SDS011;21755;43.608;1.236;2022-11-20T05:28:23;2.40;;;1.50;;
34767;SDS011;21755;43.608;1.236;2022-11-20T05:30:50;3.95;;;1.45;;
34767;SDS011;21755;43.608;1.236;2022-11-20T05:33:16;4.15;;;1.13;;
34767;SDS011;21755;43.608;1.236;2022-11-20T05:35:43;3.72;;;2.03;;
34767;SDS011;21755;43.608;1.236;2022-11-20T05:38:09;3.33;;;1.85;;
34767;SDS011;21755;43.608;1.236;2022-11-20T05:40:35;3.17;;;1.55;;
34767;SDS011;21755;43.608;1.236;2022-11-20T05:43:01;2.83;;;1.70;;
34767;SDS011;21755;43.608;1.236;2022-11-20T05:45:27;4.60;;;1.65;;
34767;SDS011;21755;43.608;1.236;2022-11-20T05:47:53;2.70;;;1.40;;
34767;SDS011;21755;43.608;1.236;2022-11-20T05:50:22;3.92;;;1.50;;
34767;SDS011;21755;43.608;1.236;2022-11-20T05:52:48;8.85;;;2.28;;
34767;SDS011;21755;43.608;1.236;2022-11-20T05:55:14;5.93;;;2.05;;
34767;SDS011;21755;43.608;1.236;2022-11-20T05:57:40;8.20;;;2.40;;
34767;SDS011;21755;43.608;1.236;2022-11-20T06:00:06;5.32;;;1.90;;
34767;SDS011;21755;43.608;1.236;2022-11-20T06:02:34;4.05;;;2.13;;
34767;SDS011;21755;43.608;1.236;2022-11-20T06:05:01;3.88;;;2.03;;
34767;SDS011;21755;43.608;1.236;2022-11-20T06:07:26;6.88;;;2.33;;
34767;SDS011;21755;43.608;1.236;2022-11-20T06:09:52;3.90;;;2.00;;
34767;SDS011;21755;43.608;1.236;2022-11-20T06:12:18;4.35;;;2.38;;
34767;SDS011;21755;43.608;1.236;2022-11-20T06:14:44;4.18;;;2.20;;
34767;SDS011;21755;43.608;1.236;2022-11-20T06:17:10;7.72;;;2.20;;
34767;SDS011;21755;43.608;1.236;2022-11-20T06:19:36;2.85;;;2.00;;
34767;SDS011;21755;43.608;1.236;2022-11-20T06:22:01;4.10;;;2.47;;
34767;SDS011;21755;43.608;1.236;2022-11-20T06:24:27;2.33;;;1.60;;
34767;SDS011;21755;43.608;1.236;2022-11-20T06:26:53;5.60;;;2.42;;
34767;SDS011;21755;43.608;1.236;2022-11-20T06:29:19;7.68;;;2.45;;
34767;SDS011;21755;43.608;1.236;2022-11-20T06:31:45;6.03;;;1.98;;
34767;SDS011;21755;43.608;1.236;2022-11-20T06:34:11;3.50;;;2.15;;
34767;SDS011;21755;43.608;1.236;2022-11-20T06:36:37;3.63;;;2.30;;
34767;SDS011;21755;43.608;1.236;2022-11-20T06:39:03;4.63;;;2.40;;
34767;SDS011;21755;43.608;1.236;2022-11-20T06:41:29;4.22;;;2.25;;
34767;SDS011;21755;43.608;1.236;2022-11-20T06:43:55;5.65;;;2.70;;
34767;SDS011;21755;43.608;1.236;2022-11-20T06:46:20;5.90;;;2.90;;
34767;SDS011;21755;43.608;1.236;2022-11-20T06:48:47;5.13;;;2.60;;
34767;SDS011;21755;43.608;1.236;2022-11-20T06:51:14;7.35;;;3.33;;
34767;SDS011;21755;43.608;1.236;2022-11-20T06:53:40;5.55;;;3.20;;
34767;SDS011;21755;43.608;1.236;2022-11-20T06:56:06;6.65;;;3.85;;
34767;SDS011;21755;43.608;1.236;2022-11-20T06:58:33;5.47;;;3.38;;
34767;SDS011;21755;43.608;1.236;2022-11-20T07:01:00;7.72;;;3.80;;
34767;SDS011;21755;43.608;1.236;2022-11-20T07:03:31;5.60;;;3.05;;
34767;SDS011;21755;43.608;1.236;2022-11-20T07:05:57;9.40;;;3.10;;
34767;SDS011;21755;43.608;1.236;2022-11-20T07:08:23;6.15;;;3.22;;
34767;SDS011;21755;43.608;1.236;2022-11-20T07:10:49;9.10;;;2.75;;
34767;SDS011;21755;43.608;1.236;2022-11-20T07:13:15;6.50;;;3.58;;
34767;SDS011;21755;43.608;1.236;2022-11-20T07:15:41;6.82;;;3.58;;
34767;SDS011;21755;43.608;1.236;2022-11-20T07:18:07;6.20;;;3.55;;
34767;SDS011;21755;43.608;1.236;2022-11-20T07:20:33;7.82;;;4.47;;
34767;SDS011;21755;43.608;1.236;2022-11-20T07:23:00;9.95;;;5.78;;
34767;SDS011;21755;43.608;1.236;2022-11-20T07:25:26;14.60;;;6.82;;
34767;SDS011;21755;43.608;1.236;2022-11-20T07:27:56;14.43;;;7.47;;
34767;SDS011;21755;43.608;1.236;2022-11-20T07:30:28;13.63;;;7.63;;
34767;SDS011;21755;43.608;1.236;2022-11-20T07:32:55;13.23;;;8.13;;
34767;SDS011;21755;43.608;1.236;2022-11-20T07:35:22;15.27;;;7.55;;
34767;SDS011;21755;43.608;1.236;2022-11-20T07:37:49;17.80;;;8.70;;
34767;SDS011;21755;43.608;1.236;2022-11-20T07:40:15;18.58;;;8.65;;
34767;SDS011;21755;43.608;1.236;2022-11-20T07:42:48;15.85;;;7.82;;
34767;SDS011;21755;43.608;1.236;2022-11-20T07:45:15;13.95;;;8.35;;
34767;SDS011;21755;43.608;1.236;2022-11-20T07:47:42;17.17;;;8.98;;
34767;SDS011;21755;43.608;1.236;2022-11-20T07:50:08;18.42;;;8.73;;
34767;SDS011;21755;43.608;1.236;2022-11-20T07:52:34;16.35;;;8.40;;
34767;SDS011;21755;43.608;1.236;2022-11-20T07:55:00;13.20;;;6.93;;
34767;SDS011;21755;43.608;1.236;2022-11-20T07:57:25;11.50;;;6.45;;
34767;SDS011;21755;43.608;1.236;2022-11-20T07:59:51;16.27;;;7.40;;
34767;SDS011;21755;43.608;1.236;2022-11-20T08:02:17;13.73;;;7.05;;
34767;SDS011;21755;43.608;1.236;2022-11-20T08:04:43;25.67;;;10.18;;
34767;SDS011;21755;43.608;1.236;2022-11-20T08:07:09;21.88;;;9.43;;
34767;SDS011;21755;43.608;1.236;2022-11-20T08:09:35;27.08;;;12.20;;
34767;SDS011;21755;43.608;1.236;2022-11-20T08:12:00;30.63;;;12.10;;
34767;SDS011;21755;43.608;1.236;2022-11-20T08:14:45;25.90;;;10.77;;
34767;SDS011;21755;43.608;1.236;2022-11-20T08:17:10;20.95;;;9.15;;
34767;SDS011;21755;43.608;1.236;2022-11-20T08:19:37;17.52;;;7.55;;
34767;SDS011;21755;43.608;1.236;2022-11-20T08:22:03;14.48;;;7.20;;
34767;SDS011;21755;43.608;1.236;2022-11-20T08:24:29;12.18;;;5.20;;
34767;SDS011;21755;43.608;1.236;2022-11-20T08:26:56;11.90;;;5.82;;
34767;SDS011;21755;43.608;1.236;2022-11-20T08:29:24;9.98;;;5.35;;
34767;SDS011;21755;43.608;1.236;2022-11-20T08:31:51;10.00;;;5.72;;
34767;SDS011;21755;43.608;1.236;2022-11-20T08:34:17;10.73;;;5.90;;
34767;SDS011;21755;43.608;1.236;2022-11-20T08:36:43;9.80;;;5.28;;
34767;SDS011;21755;43.608;1.236;2022-11-20T08:39:11;7.13;;;4.63;;
34767;SDS011;21755;43.608;1.236;2022-11-20T08:41:39;11.38;;;5.85;;
34767;SDS011;21755;43.608;1.236;2022-11-20T08:44:05;9.98;;;5.47;;
34767;SDS011;21755;43.608;1.236;2022-11-20T08:46:34;8.27;;;5.55;;
34767;SDS011;21755;43.608;1.236;2022-11-20T08:49:02;9.35;;;5.68;;
34767;SDS011;21755;43.608;1.236;2022-11-20T08:51:32;9.57;;;5.35;;
34767;SDS011;21755;43.608;1.236;2022-11-20T08:53:58;10.15;;;5.05;;
34767;SDS011;21755;43.608;1.236;2022-11-20T08:56:24;7.63;;;3.97;;
34767;SDS011;21755;43.608;1.236;2022-11-20T08:58:51;7.97;;;4.35;;
34767;SDS011;21755;43.608;1.236;2022-11-20T09:01:17;8.02;;;4.53;;
34767;SDS011;21755;43.608;1.236;2022-11-20T09:03:45;9.13;;;4.82;;
34767;SDS011;21755;43.608;1.236;2022-11-20T09:06:11;9.45;;;4.95;;
34767;SDS011;21755;43.608;1.236;2022-11-20T09:08:37;11.35;;;5.35;;
34767;SDS011;21755;43.608;1.236;2022-11-20T09:11:03;6.90;;;4.43;;
34767;SDS011;21755;43.608;1.236;2022-11-20T09:13:29;7.75;;;4.80;;
34767;SDS011;21755;43.608;1.236;2022-11-20T09:15:57;13.65;;;5.55;;
34767;SDS011;21755;43.608;1.236;2022-11-20T09:18:24;9.48;;;5.10;;
34767;SDS011;21755;43.608;1.236;2022-11-20T09:20:51;11.80;;;4.82;;
34767;SDS011;21755;43.608;1.236;2022-11-20T09:23:17;9.38;;;5.20;;
34767;SDS011;21755;43.608;1.236;2022-11-20T09:25:43;11.68;;;5.30;;
34767;SDS011;21755;43.608;1.236;2022-11-20T09:28:09;11.10;;;5.55;;
34767;SDS011;21755;43.608;1.236;2022-11-20T09:30:35;13.40;;;5.63;;
34767;SDS011;21755;43.608;1.236;2022-11-20T09:33:01;13.98;;;4.40;;
34767;SDS011;21755;43.608;1.236;2022-11-20T09:35:30;7.32;;;4.03;;
34767;SDS011;21755;43.608;1.236;2022-11-20T09:37:56;10.02;;;4.18;;
34767;SDS011;21755;43.608;1.236;2022-11-20T09:40:26;11.63;;;5.20;;
34767;SDS011;21755;43.608;1.236;2022-11-20T09:42:58;8.45;;;4.47;;
34767;SDS011;21755;43.608;1.236;2022-11-20T09:48:34;14.98;;;4.20;;
34767;SDS011;21755;43.608;1.236;2022-11-20T09:56:59;9.85;;;4.70;;
34767;SDS011;21755;43.608;1.236;2022-11-20T10:01:53;7.97;;;3.47;;
34767;SDS011;21755;43.608;1.236;2022-11-20T10:04:20;11.07;;;3.65;;
34767;SDS011;21755;43.608;1.236;2022-11-20T10:06:50;6.03;;;3.67;;
34767;SDS011;21755;43.608;1.236;2022-11-20T10:15:37;8.15;;;3.97;;
34767;SDS011;21755;43.608;1.236;2022-11-20T10:18:02;9.27;;;4.78;;
34767;SDS011;21755;43.608;1.236;2022-11-20T10:26:02;7.22;;;3.60;;
34767;SDS011;21755;43.608;1.236;2022-11-20T10:31:14;6.85;;;3.17;;
34767;SDS011;21755;43.608;1.236;2022-11-20T10:33:52;8.75;;;3.10;;
34767;SDS011;21755;43.608;1.236;2022-11-20T10:36:30;6.68;;;2.97;;
34767;SDS011;21755;43.608;1.236;2022-11-20T10:39:04;3.83;;;2.60;;
34767;SDS011;21755;43.608;1.236;2022-11-20T10:41:43;6.07;;;2.95;;
34767;SDS011;21755;43.608;1.236;2022-11-20T10:44:15;4.68;;;2.60;;
34767;SDS011;21755;43.608;1.236;2022-11-20T10:47:04;6.03;;;2.85;;
34767;SDS011;21755;43.608;1.236;2022-11-20T10:49:36;7.45;;;2.92;;
34767;SDS011;21755;43.608;1.236;2022-11-20T10:52:15;3.78;;;1.95;;
34767;SDS011;21755;43.608;1.236;2022-11-20T11:00:42;4.82;;;2.55;;
34767;SDS011;21755;43.608;1.236;2022-11-20T11:03:19;4.90;;;2.42;;
34767;SDS011;21755;43.608;1.236;2022-11-20T11:05:59;5.95;;;2.95;;
34767;SDS011;21755;43.608;1.236;2022-11-20T11:08:45;5.95;;;2.20;;
34767;SDS011;21755;43.608;1.236;2022-11-20T11:13:50;7.05;;;2.28;;
34767;SDS011;21755;43.608;1.236;2022-11-20T11:16:21;4.85;;;2.78;;
34767;SDS011;21755;43.608;1.236;2022-11-20T11:18:49;6.45;;;3.45;;
34767;SDS011;21755;43.608;1.236;2022-11-20T11:21:23;4.78;;;2.70;;
34767;SDS011;21755;43.608;1.236;2022-11-20T11:24:00;8.68;;;3.15;;
34767;SDS011;21755;43.608;1.236;2022-11-20T11:26:29;6.63;;;2.42;;
34767;SDS011;21755;43.608;1.236;2022-11-20T11:28:59;5.03;;;2.40;;
34767;SDS011;21755;43.608;1.236;2022-11-20T11:31:27;6.65;;;2.17;;
34767;SDS011;21755;43.608;1.236;2022-11-20T11:34:07;3.83;;;2.10;;
34767;SDS011;21755;43.608;1.236;2022-11-20T11:36:36;5.10;;;2.60;;
34767;SDS011;21755;43.608;1.236;2022-11-20T11:39:03;3.25;;;1.75;;
34767;SDS011;21755;43.608;1.236;2022-11-20T11:41:33;7.20;;;2.05;;
34767;SDS011;21755;43.608;1.236;2022-11-20T11:44:15;3.60;;;2.00;;
34767;SDS011;21755;43.608;1.236;2022-11-20T11:47:21;2.80;;;1.65;;
34767;SDS011;21755;43.608;1.236;2022-11-20T11:52:48;3.85;;;2.13;;
34767;SDS011;21755;43.608;1.236;2022-11-20T11:55:37;2.35;;;1.50;;
34767;SDS011;21755;43.608;1.236;2022-11-20T12:03:38;4.40;;;2.20;;
34767;SDS011;21755;43.608;1.236;2022-11-20T12:06:10;4.18;;;2.42;;
34767;SDS011;21755;43.608;1.236;2022-11-20T12:08:47;5.45;;;2.20;;
34767;SDS011;21755;43.608;1.236;2022-11-20T12:14:14;5.10;;;1.90;;
34767;SDS011;21755;43.608;1.236;2022-11-20T12:19:22;24.83;;;11.20;;
34767;SDS011;21755;43.608;1.236;2022-11-20T12:21:52;16.92;;;7.85;;
34767;SDS011;21755;43.608;1.236;2022-11-20T12:36:14;3.03;;;1.50;;
34767;SDS011;21755;43.608;1.236;2022-11-20T12:43:59;1.58;;;0.80;;
34767;SDS011;21755;43.608;1.236;2022-11-20T12:53:08;3.17;;;0.55;;
34767;SDS011;21755;43.608;1.236;2022-11-20T12:55:54;2.13;;;0.98;;
34767;SDS011;21755;43.608;1.236;2022-11-20T13:01:20;4.93;;;1.20;;
34767;SDS011;21755;43.608;1.236;2022-11-20T13:04:16;3.42;;;0.85;;
34767;SDS011;21755;43.608;1.236;2022-11-20T13:07:03;2.58;;;0.82;;
34767;SDS011;21755;43.608;1.236;2022-11-20T13:09:36;2.75;;;1.10;;
34767;SDS011;21755;43.608;1.236;2022-11-20T13:14:55;6.45;;;0.85;;
34767;SDS011;21755;43.608;1.236;2022-11-20T13:20:18;1.40;;;0.80;;
34767;SDS011;21755;43.608;1.236;2022-11-20T13:22:48;7.97;;;1.88;;
34767;SDS011;21755;43.608;1.236;2022-11-20T13:25:28;2.90;;;0.95;;
34767;SDS011;21755;43.608;1.236;2022-11-20T13:27:56;2.85;;;1.00;;
34767;SDS011;21755;43.608;1.236;2022-11-20T13:30:28;3.10;;;1.00;;
34767;SDS011;21755;43.608;1.236;2022-11-20T13:32:56;2.83;;;1.10;;
34767;SDS011;21755;43.608;1.236;2022-11-20T13:38:21;5.20;;;1.30;;
34767;SDS011;21755;43.608;1.236;2022-11-20T13:40:57;3.17;;;1.08;;
34767;SDS011;21755;43.608;1.236;2022-11-20T13:43:44;2.63;;;0.90;;
34767;SDS011;21755;43.608;1.236;2022-11-20T13:46:13;7.95;;;1.90;;
34767;SDS011;21755;43.608;1.236;2022-11-20T13:54:19;6.35;;;1.75;;
34767;SDS011;21755;43.608;1.236;2022-11-20T14:02:36;5.63;;;1.42;;
34767;SDS011;21755;43.608;1.236;2022-11-20T14:05:02;17.45;;;8.10;;
34767;SDS011;21755;43.608;1.236;2022-11-20T14:07:35;9.38;;;4.32;;
34767;SDS011;21755;43.608;1.236;2022-11-20T14:10:04;14.02;;;8.32;;
34767;SDS011;21755;43.608;1.236;2022-11-20T14:12:32;7.88;;;3.85;;
34767;SDS011;21755;43.608;1.236;2022-11-20T14:14:59;8.13;;;2.28;;
34767;SDS011;21755;43.608;1.236;2022-11-20T14:20:00;16.77;;;4.25;;
34767;SDS011;21755;43.608;1.236;2022-11-20T14:22:30;22.77;;;8.52;;
34767;SDS011;21755;43.608;1.236;2022-11-20T14:25:04;13.98;;;4.60;;
34767;SDS011;21755;43.608;1.236;2022-11-20T14:27:33;51.70;;;21.30;;
34767;SDS011;21755;43.608;1.236;2022-11-20T14:30:02;68.68;;;32.35;;
34767;SDS011;21755;43.608;1.236;2022-11-20T14:32:29;17.52;;;4.15;;
34767;SDS011;21755;43.608;1.236;2022-11-20T14:34:57;22.80;;;10.23;;
34767;SDS011;21755;43.608;1.236;2022-11-20T14:37:27;23.80;;;8.90;;
34767;SDS011;21755;43.608;1.236;2022-11-20T14:39:58;19.98;;;6.10;;
34767;SDS011;21755;43.608;1.236;2022-11-20T14:42:26;22.75;;;7.25;;
34767;SDS011;21755;43.608;1.236;2022-11-20T14:44:57;19.50;;;3.72;;
34767;SDS011;21755;43.608;1.236;2022-11-20T14:47:33;32.42;;;8.07;;
34767;SDS011;21755;43.608;1.236;2022-11-20T14:50:00;25.60;;;5.68;;
34767;SDS011;21755;43.608;1.236;2022-11-20T14:52:27;24.08;;;9.10;;
34767;SDS011;21755;43.608;1.236;2022-11-20T14:54:54;18.50;;;3.88;;
34767;SDS011;21755;43.608;1.236;2022-11-20T14:57:30;22.67;;;5.38;;
34767;SDS011;21755;43.608;1.236;2022-11-20T15:00:04;16.30;;;3.80;;
34767;SDS011;21755;43.608;1.236;2022-11-20T15:02:41;25.52;;;5.30;;
34767;SDS011;21755;43.608;1.236;2022-11-20T15:05:08;16.00;;;3.75;;
34767;SDS011;21755;43.608;1.236;2022-11-20T15:07:38;23.10;;;5.80;;
34767;SDS011;21755;43.608;1.236;2022-11-20T15:10:09;18.75;;;4.10;;
34767;SDS011;21755;43.608;1.236;2022-11-20T15:12:55;22.35;;;5.32;;
34767;SDS011;21755;43.608;1.236;2022-11-20T15:17:58;94.05;;;41.72;;
34767;SDS011;21755;43.608;1.236;2022-11-20T15:20:25;33.88;;;7.20;;
34767;SDS011;21755;43.608;1.236;2022-11-20T15:23:00;35.13;;;13.43;;
34767;SDS011;21755;43.608;1.236;2022-11-20T15:25:26;60.28;;;22.73;;
34767;SDS011;21755;43.608;1.236;2022-11-20T15:27:54;44.88;;;19.35;;
34767;SDS011;21755;43.608;1.236;2022-11-20T15:30:21;37.65;;;15.85;;
34767;SDS011;21755;43.608;1.236;2022-11-20T15:32:48;37.25;;;14.55;;
34767;SDS011;21755;43.608;1.236;2022-11-20T15:35:14;20.85;;;4.40;;
34767;SDS011;21755;43.608;1.236;2022-11-20T15:37:41;22.15;;;5.32;;
34767;SDS011;21755;43.608;1.236;2022-11-20T15:40:07;28.73;;;12.20;;
34767;SDS011;21755;43.608;1.236;2022-11-20T15:42:34;32.88;;;11.93;;
34767;SDS011;21755;43.608;1.236;2022-11-20T15:45:00;18.85;;;6.18;;
34767;SDS011;21755;43.608;1.236;2022-11-20T15:47:31;26.08;;;6.63;;
34767;SDS011;21755;43.608;1.236;2022-11-20T15:49:59;22.47;;;4.70;;
34767;SDS011;21755;43.608;1.236;2022-11-20T15:52:25;25.05;;;5.00;;
34767;SDS011;21755;43.608;1.236;2022-11-20T15:54:51;20.85;;;4.65;;
34767;SDS011;21755;43.608;1.236;2022-11-20T15:57:17;21.48;;;5.47;;
34767;SDS011;21755;43.608;1.236;2022-11-20T15:59:43;17.63;;;5.90;;
34767;SDS011;21755;43.608;1.236;2022-11-20T16:02:12;23.95;;;8.23;;
34767;SDS011;21755;43.608;1.236;2022-11-20T16:04:39;28.48;;;5.72;;
34767;SDS011;21755;43.608;1.236;2022-11-20T16:07:05;25.73;;;9.38;;
34767;SDS011;21755;43.608;1.236;2022-11-20T16:09:31;19.08;;;4.65;;
34767;SDS011;21755;43.608;1.236;2022-11-20T16:11:57;27.83;;;7.90;;
34767;SDS011;21755;43.608;1.236;2022-11-20T16:14:24;19.92;;;6.45;;
34767;SDS011;21755;43.608;1.236;2022-11-20T16:17:10;22.30;;;5.38;;
34767;SDS011;21755;43.608;1.236;2022-11-20T16:19:37;15.02;;;4.28;;
34767;SDS011;21755;43.608;1.236;2022-11-20T16:22:03;23.35;;;5.60;;
34767;SDS011;21755;43.608;1.236;2022-11-20T16:24:29;23.48;;;5.70;;
34767;SDS011;21755;43.608;1.236;2022-11-20T16:26:55;17.25;;;3.28;;
34767;SDS011;21755;43.608;1.236;2022-11-20T16:29:21;10.70;;;2.03;;
34767;SDS011;21755;43.608;1.236;2022-11-20T16:31:47;12.10;;;2.63;;
34767;SDS011;21755;43.608;1.236;2022-11-20T16:34:15;17.27;;;3.72;;
34767;SDS011;21755;43.608;1.236;2022-11-20T16:36:42;12.02;;;2.88;;
34767;SDS011;21755;43.608;1.236;2022-11-20T16:39:10;12.25;;;1.90;;
34767;SDS011;21755;43.608;1.236;2022-11-20T16:41:36;13.65;;;2.55;;
34767;SDS011;21755;43.608;1.236;2022-11-20T16:44:05;11.73;;;2.30;;
34767;SDS011;21755;43.608;1.236;2022-11-20T16:46:34;22.65;;;8.40;;